createdAt,value
2018-07-28T00:00:17.392Z,39.13
2018-07-28T00:02:45.145Z,38.34
2018-07-28T00:05:12.705Z,38.83
2018-07-28T00:07:40.144Z,39.30
2018-07-28T00:10:09.470Z,39.08
2018-07-28T00:12:36.926Z,38.39
2018-07-28T00:15:07.001Z,39.27
2018-07-28T00:17:34.510Z,39.48
2018-07-28T00:20:02.074Z,39.39
2018-07-28T00:22:29.602Z,39.63
2018-07-28T00:24:57.066Z,38.76
2018-07-28T00:27:24.534Z,39.20
2018-07-28T00:29:51.965Z,38.85
2018-07-28T00:32:19.444Z,39.33
2018-07-28T00:34:46.894Z,38.84
2018-07-28T00:37:14.347Z,38.87
2018-07-28T00:39:41.796Z,38.17
2018-07-28T00:42:09.276Z,38.88
2018-07-28T00:44:36.716Z,39.02
2018-07-28T00:47:04.232Z,39.54
2018-07-28T00:49:31.654Z,38.51
2018-07-28T00:51:59.113Z,38.52
2018-07-28T00:54:26.515Z,38.94
2018-07-28T00:56:53.994Z,39.06
2018-07-28T00:59:21.501Z,39.29
2018-07-28T01:01:48.925Z,38.66
2018-07-28T01:04:16.559Z,39.35
2018-07-28T01:06:44.339Z,38.78
2018-07-28T01:09:11.693Z,38.60
2018-07-28T01:11:39.194Z,39.01
2018-07-28T01:14:06.661Z,38.89
2018-07-28T01:16:34.094Z,38.85
2018-07-28T01:19:01.542Z,38.75
2018-07-28T01:21:28.977Z,38.69
2018-07-28T01:23:56.444Z,38.65
2018-07-28T01:26:23.949Z,38.55
2018-07-28T01:28:51.356Z,38.24
2018-07-28T01:31:18.800Z,38.09
2018-07-28T01:33:46.290Z,38.54
2018-07-28T01:36:13.737Z,39.10
2018-07-28T01:38:41.201Z,38.73
2018-07-28T01:41:08.685Z,39.03
2018-07-28T01:43:36.107Z,37.70
2018-07-28T01:46:03.546Z,38.98
2018-07-28T01:48:31.012Z,38.50
2018-07-28T01:50:58.489Z,39.04
2018-07-28T01:53:25.914Z,38.67
2018-07-28T01:55:53.394Z,38.22
2018-07-28T01:58:20.860Z,37.80
2018-07-28T02:00:48.257Z,38.34
2018-07-28T02:03:15.718Z,37.81
2018-07-28T02:05:43.182Z,38.23
2018-07-28T02:08:10.623Z,38.89
2018-07-28T02:10:38.091Z,38.39
2018-07-28T02:13:05.571Z,37.87
2018-07-28T02:15:33.005Z,39.11
2018-07-28T02:18:00.476Z,38.65
2018-07-28T02:20:27.913Z,38.27
2018-07-28T02:22:55.371Z,38.60
2018-07-28T02:25:22.840Z,38.64
2018-07-28T02:27:50.314Z,38.55
2018-07-28T02:30:17.739Z,39.13
2018-07-28T02:32:45.210Z,39.00
2018-07-28T02:35:12.650Z,38.85
2018-07-28T02:37:40.123Z,38.90
2018-07-28T02:40:07.585Z,37.97
2018-07-28T02:42:35.036Z,38.51
2018-07-28T02:45:02.508Z,38.58
2018-07-28T02:47:29.951Z,39.20
2018-07-28T02:49:57.393Z,38.37
2018-07-28T02:52:24.863Z,39.00
2018-07-28T02:54:52.310Z,39.32
2018-07-28T02:57:19.796Z,38.88
2018-07-28T02:59:47.262Z,39.07
2018-07-28T03:02:14.724Z,39.15
2018-07-28T03:04:42.131Z,39.06
2018-07-28T03:07:09.651Z,39.11
2018-07-28T03:09:37.155Z,39.73
2018-07-28T03:12:04.502Z,38.67
2018-07-28T03:14:32.031Z,38.52
2018-07-28T03:16:59.446Z,39.07
2018-07-28T03:19:26.879Z,39.96
2018-07-28T03:21:54.366Z,39.34
2018-07-28T03:24:21.795Z,39.83
2018-07-28T03:26:49.277Z,40.01
2018-07-28T03:29:16.730Z,39.37
2018-07-28T03:31:44.202Z,39.12
2018-07-28T03:34:11.709Z,39.92
2018-07-28T03:36:39.082Z,39.44
2018-07-28T03:39:07.574Z,39.28
2018-07-28T03:41:35.031Z,40.31
2018-07-28T03:44:02.537Z,39.66
2018-07-28T03:46:29.939Z,39.48
2018-07-28T03:48:57.427Z,39.64
2018-07-28T03:51:24.872Z,39.17
2018-07-28T03:53:52.349Z,39.09
2018-07-28T03:56:19.774Z,40.27
2018-07-28T03:58:47.230Z,40.10
2018-07-28T04:01:14.694Z,39.49
2018-07-28T04:03:42.158Z,39.07
2018-07-28T04:06:09.638Z,39.59
2018-07-28T04:08:37.074Z,40.09
2018-07-28T04:11:04.534Z,39.56
2018-07-28T04:13:31.970Z,39.69
2018-07-28T04:15:59.426Z,39.94
2018-07-28T04:18:26.907Z,39.45
2018-07-28T04:20:54.361Z,40.03
2018-07-28T04:23:21.781Z,39.91
2018-07-28T04:25:49.249Z,38.82
2018-07-28T04:28:16.741Z,38.95
2018-07-28T04:30:44.181Z,39.72
2018-07-28T04:33:11.622Z,39.71
2018-07-28T04:35:39.119Z,39.84
2018-07-28T04:38:06.605Z,40.03
2018-07-28T04:40:34.026Z,40.02
2018-07-28T04:43:01.479Z,39.61
2018-07-28T04:45:28.915Z,39.34
2018-07-28T04:47:56.405Z,39.97
2018-07-28T04:50:23.835Z,39.35
2018-07-28T04:52:51.314Z,39.69
2018-07-28T04:55:18.746Z,39.79
2018-07-28T04:57:46.215Z,40.28
2018-07-28T05:00:13.669Z,40.43
2018-07-28T05:02:41.146Z,39.81
2018-07-28T05:05:08.559Z,39.56
2018-07-28T05:07:36.143Z,40.62
2018-07-28T05:10:03.845Z,39.35
2018-07-28T05:12:31.406Z,39.78
2018-07-28T05:14:59.214Z,40.03
2018-07-28T05:17:26.842Z,40.57
2018-07-28T05:19:54.333Z,40.13
2018-07-28T05:22:21.790Z,39.97
2018-07-28T05:24:49.258Z,39.82
2018-07-28T05:27:16.703Z,40.21
2018-07-28T05:29:44.286Z,40.35
2018-07-28T05:32:11.640Z,40.50
2018-07-28T05:34:39.082Z,40.90
2018-07-28T05:37:06.576Z,40.60
2018-07-28T05:39:34.051Z,40.46
2018-07-28T05:42:01.484Z,40.84
2018-07-28T05:44:28.904Z,41.23
2018-07-28T05:46:56.390Z,41.36
2018-07-28T05:49:23.838Z,40.81
2018-07-28T05:51:51.339Z,41.67
2018-07-28T05:54:18.762Z,41.93
2018-07-28T05:56:46.208Z,41.63
2018-07-28T05:59:13.714Z,41.72
2018-07-28T06:01:41.106Z,42.13
2018-07-28T06:04:08.622Z,41.56
2018-07-28T06:06:36.282Z,42.00
2018-07-28T06:09:05.680Z,41.56
2018-07-28T06:11:33.018Z,40.89
2018-07-28T06:14:00.479Z,41.61
2018-07-28T06:16:27.913Z,41.32
2018-07-28T06:18:55.350Z,41.33
2018-07-28T06:21:22.846Z,41.19
2018-07-28T06:23:50.377Z,41.32
2018-07-28T06:26:17.766Z,42.23
2018-07-28T06:28:45.909Z,42.54
2018-07-28T06:31:13.297Z,41.99
2018-07-28T06:33:40.752Z,41.60
2018-07-28T06:36:08.683Z,42.92
2018-07-28T06:38:36.178Z,41.53
2018-07-28T06:41:03.562Z,41.59
2018-07-28T06:43:30.959Z,41.39
2018-07-28T06:45:58.449Z,42.54
2018-07-28T06:48:25.867Z,42.60
2018-07-28T06:50:53.325Z,42.34
2018-07-28T06:53:20.801Z,41.72
2018-07-28T06:55:48.237Z,41.36
2018-07-28T06:58:15.743Z,42.08
2018-07-28T07:00:43.177Z,41.30
2018-07-28T07:03:10.682Z,41.68
2018-07-28T07:05:38.082Z,41.87
2018-07-28T07:08:05.530Z,41.96
2018-07-28T07:10:33.006Z,42.02
2018-07-28T07:13:00.449Z,41.54
2018-07-28T07:15:27.905Z,41.89
2018-07-28T07:17:55.366Z,41.89
2018-07-28T07:20:22.687Z,41.36
2018-07-28T07:22:50.053Z,42.54
2018-07-28T07:25:17.338Z,41.86
2018-07-28T07:27:44.648Z,42.14
2018-07-28T07:30:11.930Z,41.61
2018-07-28T07:32:39.290Z,42.43
2018-07-28T07:35:06.607Z,42.46
2018-07-28T07:37:33.921Z,42.14
2018-07-28T07:40:01.227Z,42.41
2018-07-28T07:42:28.629Z,42.33
2018-07-28T07:44:55.928Z,41.49
2018-07-28T07:47:23.320Z,41.60
2018-07-28T07:49:50.580Z,41.92
2018-07-28T07:52:18.343Z,42.39
2018-07-28T07:54:45.669Z,42.58
2018-07-28T07:57:12.978Z,42.18
2018-07-28T07:59:40.273Z,41.87
2018-07-28T08:02:07.785Z,42.26
2018-07-28T08:04:35.086Z,41.44
2018-07-28T08:07:02.414Z,41.92
2018-07-28T08:09:29.753Z,42.00
2018-07-28T08:11:57.077Z,41.93
2018-07-28T08:14:24.378Z,42.50
2018-07-28T08:16:51.701Z,41.96
2018-07-28T08:19:20.004Z,41.69
2018-07-28T08:21:47.324Z,42.46
2018-07-28T08:24:14.641Z,42.26
2018-07-28T08:26:42.176Z,42.50
2018-07-28T08:29:09.571Z,43.59
2018-07-28T08:31:37.033Z,47.35
2018-07-28T08:34:04.645Z,46.94
2018-07-28T08:36:32.153Z,49.45
2018-07-28T08:38:59.629Z,47.59
2018-07-28T08:41:27.100Z,48.74
2018-07-28T08:43:54.525Z,49.43
2018-07-28T08:46:22.003Z,50.65
2018-07-28T08:48:49.457Z,49.75
2018-07-28T08:51:16.922Z,48.34
2018-07-28T08:53:44.561Z,49.24
2018-07-28T08:56:12.014Z,49.22
2018-07-28T08:58:39.502Z,50.34
2018-07-28T09:01:06.953Z,50.52
2018-07-28T09:03:34.431Z,51.34
2018-07-28T09:06:01.882Z,52.37
2018-07-28T09:08:29.317Z,50.48
2018-07-28T09:10:56.825Z,51.33
2018-07-28T09:13:24.214Z,52.13
2018-07-28T09:15:51.687Z,51.75
2018-07-28T09:18:19.145Z,51.75
2018-07-28T09:20:46.617Z,51.97
2018-07-28T09:23:14.056Z,53.07
2018-07-28T09:25:41.525Z,53.09
2018-07-28T09:28:08.974Z,51.99
2018-07-28T09:30:36.537Z,51.75
2018-07-28T09:33:03.970Z,52.46
2018-07-28T09:35:31.321Z,52.61
2018-07-28T09:37:58.802Z,53.50
2018-07-28T09:40:26.242Z,52.96
2018-07-28T09:42:53.701Z,53.27
2018-07-28T09:45:21.214Z,51.95
2018-07-28T09:47:48.605Z,52.33
2018-07-28T09:50:15.926Z,52.33
2018-07-28T09:52:43.242Z,51.35
2018-07-28T09:55:10.578Z,50.89
2018-07-28T09:57:38.298Z,51.19
2018-07-28T10:00:06.632Z,50.90
2018-07-28T10:02:33.975Z,49.95
2018-07-28T10:05:01.322Z,50.29
2018-07-28T10:07:28.649Z,49.93
2018-07-28T10:09:55.966Z,49.64
2018-07-28T10:12:23.382Z,48.88
2018-07-28T10:14:50.714Z,49.60
2018-07-28T10:17:18.042Z,48.66
2018-07-28T10:19:45.361Z,49.37
2018-07-28T10:22:12.698Z,48.77
2018-07-28T10:24:40.074Z,48.59
2018-07-28T10:27:07.381Z,47.86
2018-07-28T10:29:34.741Z,48.08
2018-07-28T10:32:02.080Z,48.29
2018-07-28T10:34:29.410Z,48.77
2018-07-28T10:36:56.739Z,47.76
2018-07-28T10:39:24.070Z,48.08
2018-07-28T10:41:51.405Z,48.18
2018-07-28T10:44:18.729Z,47.48
2018-07-28T10:46:46.305Z,48.28
2018-07-28T10:49:13.658Z,47.72
2018-07-28T10:51:40.982Z,47.86
2018-07-28T10:54:08.313Z,47.49
2018-07-28T10:56:35.625Z,47.69
2018-07-28T10:59:03.602Z,47.35
2018-07-28T11:01:30.933Z,47.83
2018-07-28T11:03:58.291Z,46.54
2018-07-28T11:06:25.601Z,47.41
2018-07-28T11:08:52.933Z,46.74
2018-07-28T11:11:20.490Z,47.54
2018-07-28T11:13:47.853Z,47.64
2018-07-28T11:16:15.166Z,46.61
2018-07-28T11:18:43.509Z,47.35
2018-07-28T11:21:11.013Z,46.16
2018-07-28T11:23:55.082Z,47.25
2018-07-28T11:26:22.478Z,46.81
2018-07-28T11:28:49.764Z,46.83
2018-07-28T11:31:28.410Z,47.12
2018-07-28T11:34:07.012Z,46.94
2018-07-28T11:36:45.690Z,46.98
2018-07-28T11:39:24.290Z,46.40
2018-07-28T11:42:02.838Z,47.04
2018-07-28T11:44:42.266Z,46.03
2018-07-28T11:47:09.586Z,46.17
2018-07-28T11:49:37.474Z,46.39
2018-07-28T11:52:05.866Z,46.55
2018-07-28T11:54:33.213Z,46.20
2018-07-28T11:57:00.645Z,46.09
2018-07-28T11:59:27.968Z,45.85
2018-07-28T12:01:55.492Z,46.72
2018-07-28T12:04:22.826Z,46.61
2018-07-28T12:06:50.178Z,45.75
2018-07-28T12:09:17.515Z,46.39
2018-07-28T12:11:46.084Z,46.90
2018-07-28T12:14:13.420Z,46.90
2018-07-28T12:16:40.750Z,46.67
2018-07-28T12:19:09.114Z,46.03
2018-07-28T12:21:36.439Z,45.66
2018-07-28T12:24:05.194Z,46.38
2018-07-28T12:26:32.476Z,45.68
2018-07-28T12:29:00.052Z,46.68
2018-07-28T12:31:28.417Z,45.94
2018-07-28T12:33:55.734Z,46.00
2018-07-28T12:36:23.176Z,45.44
2018-07-28T12:38:50.698Z,45.93
2018-07-28T12:41:18.249Z,45.25
2018-07-28T12:43:45.735Z,44.42
2018-07-28T12:46:13.206Z,43.93
2018-07-28T12:48:40.659Z,44.49
2018-07-28T12:51:08.135Z,44.14
2018-07-28T12:53:35.558Z,43.83
2018-07-28T12:56:03.082Z,44.56
2018-07-28T12:58:30.577Z,43.17
2018-07-28T13:00:58.058Z,43.93
2018-07-28T13:03:25.585Z,44.00
2018-07-28T13:05:52.996Z,43.33
2018-07-28T13:08:20.461Z,43.78
2018-07-28T13:10:47.890Z,43.28
2018-07-28T13:13:15.369Z,42.96
2018-07-28T13:15:42.782Z,42.85
2018-07-28T13:18:10.329Z,43.34
2018-07-28T13:20:37.730Z,42.98
2018-07-28T13:23:05.158Z,41.93
2018-07-28T13:25:32.680Z,42.69
2018-07-28T13:28:00.097Z,42.46
2018-07-28T13:30:27.592Z,42.46
2018-07-28T13:32:55.049Z,42.51
2018-07-28T13:35:22.477Z,42.19
2018-07-28T13:37:49.941Z,42.03
2018-07-28T13:40:17.410Z,41.93
2018-07-28T13:42:44.930Z,42.19
2018-07-28T13:45:12.258Z,42.55
2018-07-28T13:47:39.741Z,42.27
2018-07-28T13:50:07.204Z,41.79
2018-07-28T13:52:34.669Z,41.12
2018-07-28T13:55:02.158Z,41.74
2018-07-28T13:57:29.808Z,41.19
2018-07-28T13:59:57.242Z,41.26
2018-07-28T14:02:24.722Z,40.68
2018-07-28T14:04:52.146Z,40.47
2018-07-28T14:07:19.597Z,41.38
2018-07-28T14:09:47.060Z,41.07
2018-07-28T14:12:15.560Z,41.58
2018-07-28T14:14:43.074Z,41.11
2018-07-28T14:17:10.446Z,40.53
2018-07-28T14:19:37.929Z,40.83
2018-07-28T14:22:05.401Z,40.74
2018-07-28T14:24:32.808Z,40.98
2018-07-28T14:27:00.299Z,41.55
2018-07-28T14:29:28.755Z,41.86
2018-07-28T14:31:56.230Z,41.91
2018-07-28T14:34:23.710Z,42.10
2018-07-28T14:36:51.154Z,41.60
2018-07-28T14:39:18.624Z,42.53
2018-07-28T14:41:46.136Z,42.47
2018-07-28T14:44:13.491Z,42.76
2018-07-28T14:46:40.966Z,43.71
2018-07-28T14:49:09.471Z,44.17
2018-07-28T14:51:36.927Z,44.49
2018-07-28T14:54:04.374Z,44.42
2018-07-28T14:56:31.823Z,44.79
2018-07-28T14:58:59.942Z,46.64
2018-07-28T15:01:27.411Z,48.16
2018-07-28T15:04:57.726Z,49.47
2018-07-28T15:07:25.245Z,49.00
2018-07-28T15:09:52.587Z,50.81
2018-07-28T15:12:20.072Z,50.64
2018-07-28T15:14:47.545Z,50.19
2018-07-28T15:17:14.981Z,50.88
2018-07-28T15:19:42.416Z,50.58
2018-07-28T15:22:09.966Z,50.25
2018-07-28T15:24:37.331Z,50.44
2018-07-28T15:27:04.974Z,51.46
2018-07-28T15:29:32.543Z,52.25
2018-07-28T15:32:00.049Z,52.64
2018-07-28T15:34:27.494Z,52.14
2018-07-28T15:36:54.959Z,52.77
2018-07-28T15:39:22.382Z,53.54
2018-07-28T15:41:49.872Z,54.93
2018-07-28T15:44:17.313Z,53.71
2018-07-28T15:46:44.765Z,54.08
2018-07-28T15:49:12.285Z,52.69
2018-07-28T15:51:39.684Z,53.14
2018-07-28T15:54:07.150Z,52.17
2018-07-28T15:56:41.007Z,53.57
2018-07-28T15:59:16.094Z,52.38
2018-07-28T16:01:45.393Z,53.04
2018-07-28T16:04:16.787Z,53.22
2018-07-28T16:06:52.414Z,54.41
2018-07-28T16:09:19.930Z,54.14
2018-07-28T16:11:47.299Z,53.79
2018-07-28T16:14:14.742Z,53.27
2018-07-28T16:16:42.202Z,53.48
2018-07-28T16:19:09.795Z,54.38
2018-07-28T16:21:37.430Z,54.58
2018-07-28T16:24:04.829Z,54.31
2018-07-28T16:26:32.242Z,55.32
2018-07-28T16:28:59.691Z,54.12
2018-07-28T16:31:27.488Z,53.55
2018-07-28T16:33:54.916Z,54.95
2018-07-28T16:36:22.397Z,52.87
2018-07-28T16:38:49.870Z,50.97
2018-07-28T16:41:17.381Z,51.80
2018-07-28T16:43:44.717Z,52.29
2018-07-28T16:46:12.197Z,53.04
2018-07-28T16:48:39.753Z,53.33
2018-07-28T16:51:07.112Z,52.38
